sensor_id;sensor_type;location;lat;lon;timestamp;P1;durP1;ratioP1;P2;durP2;ratioP2
22030;SDS011;11179;52.106;21.024;2023-03-01T00:01:51;85.73;;;43.70;;
22030;SDS011;11179;52.106;21.024;2023-03-01T00:04:17;95.93;;;46.43;;
22030;SDS011;11179;52.106;21.024;2023-03-01T00:06:42;86.67;;;43.30;;
22030;SDS011;11179;52.106;21.024;2023-03-01T00:09:10;95.10;;;45.45;;
22030;SDS011;11179;52.106;21.024;2023-03-01T00:11:36;86.17;;;43.40;;
22030;SDS011;11179;52.106;21.024;2023-03-01T00:14:02;84.93;;;44.17;;
22030;SDS011;11179;52.106;21.024;2023-03-01T00:16:37;88.30;;;43.90;;
22030;SDS011;11179;52.106;21.024;2023-03-01T00:19:07;96.82;;;47.03;;
22030;SDS011;11179;52.106;21.024;2023-03-01T00:21:37;92.15;;;44.45;;
22030;SDS011;11179;52.106;21.024;2023-03-01T00:24:02;85.97;;;44.70;;
22030;SDS011;11179;52.106;21.024;2023-03-01T00:26:28;91.28;;;46.53;;
22030;SDS011;11179;52.106;21.024;2023-03-01T00:28:54;100.83;;;45.57;;
22030;SDS011;11179;52.106;21.024;2023-03-01T00:31:22;85.20;;;44.38;;
22030;SDS011;11179;52.106;21.024;2023-03-01T00:33:51;91.43;;;44.28;;
22030;SDS011;11179;52.106;21.024;2023-03-01T00:36:17;96.10;;;46.90;;
22030;SDS011;11179;52.106;21.024;2023-03-01T00:38:43;93.40;;;45.37;;
22030;SDS011;11179;52.106;21.024;2023-03-01T00:41:11;89.13;;;44.28;;
22030;SDS011;11179;52.106;21.024;2023-03-01T00:43:38;96.43;;;47.08;;
22030;SDS011;11179;52.106;21.024;2023-03-01T00:46:05;88.57;;;45.30;;
22030;SDS011;11179;52.106;21.024;2023-03-01T00:48:32;82.20;;;46.08;;
22030;SDS011;11179;52.106;21.024;2023-03-01T00:51:03;88.30;;;45.03;;
22030;SDS011;11179;52.106;21.024;2023-03-01T00:53:33;86.90;;;43.92;;
22030;SDS011;11179;52.106;21.024;2023-03-01T00:55:59;91.53;;;44.03;;
22030;SDS011;11179;52.106;21.024;2023-03-01T00:58:25;80.30;;;43.50;;
22030;SDS011;11179;52.106;21.024;2023-03-01T01:00:50;86.70;;;43.80;;
22030;SDS011;11179;52.106;21.024;2023-03-01T01:03:17;79.60;;;41.97;;
22030;SDS011;11179;52.106;21.024;2023-03-01T01:05:42;93.13;;;44.70;;
22030;SDS011;11179;52.106;21.024;2023-03-01T01:08:07;82.40;;;41.27;;
22030;SDS011;11179;52.106;21.024;2023-03-01T01:10:33;87.97;;;43.00;;
22030;SDS011;11179;52.106;21.024;2023-03-01T01:12:59;81.60;;;41.88;;
22030;SDS011;11179;52.106;21.024;2023-03-01T01:15:25;84.77;;;42.97;;
22030;SDS011;11179;52.106;21.024;2023-03-01T01:17:50;79.33;;;40.37;;
22030;SDS011;11179;52.106;21.024;2023-03-01T01:20:15;77.43;;;39.53;;
22030;SDS011;11179;52.106;21.024;2023-03-01T01:22:41;85.53;;;43.60;;
22030;SDS011;11179;52.106;21.024;2023-03-01T01:25:06;79.90;;;40.33;;
22030;SDS011;11179;52.106;21.024;2023-03-01T01:27:32;72.30;;;37.40;;
22030;SDS011;11179;52.106;21.024;2023-03-01T01:29:57;78.10;;;39.50;;
22030;SDS011;11179;52.106;21.024;2023-03-01T01:32:22;79.90;;;40.07;;
22030;SDS011;11179;52.106;21.024;2023-03-01T01:34:48;83.10;;;40.57;;
22030;SDS011;11179;52.106;21.024;2023-03-01T01:37:13;77.63;;;36.80;;
22030;SDS011;11179;52.106;21.024;2023-03-01T01:39:38;78.27;;;38.37;;
22030;SDS011;11179;52.106;21.024;2023-03-01T01:42:04;77.47;;;37.50;;
22030;SDS011;11179;52.106;21.024;2023-03-01T01:44:29;81.00;;;39.33;;
22030;SDS011;11179;52.106;21.024;2023-03-01T01:47:16;83.87;;;39.40;;
22030;SDS011;11179;52.106;21.024;2023-03-01T01:49:51;79.28;;;37.17;;
22030;SDS011;11179;52.106;21.024;2023-03-01T01:52:27;70.43;;;36.63;;
22030;SDS011;11179;52.106;21.024;2023-03-01T01:55:04;76.45;;;36.80;;
22030;SDS011;11179;52.106;21.024;2023-03-01T01:57:35;71.47;;;36.10;;
22030;SDS011;11179;52.106;21.024;2023-03-01T02:00:05;76.47;;;37.30;;
22030;SDS011;11179;52.106;21.024;2023-03-01T02:02:33;76.32;;;37.20;;
22030;SDS011;11179;52.106;21.024;2023-03-01T02:05:02;67.37;;;36.47;;
22030;SDS011;11179;52.106;21.024;2023-03-01T02:07:35;70.32;;;36.25;;
22030;SDS011;11179;52.106;21.024;2023-03-01T02:10:03;72.35;;;36.65;;
22030;SDS011;11179;52.106;21.024;2023-03-01T02:12:29;79.13;;;38.88;;
22030;SDS011;11179;52.106;21.024;2023-03-01T02:14:55;76.47;;;39.27;;
22030;SDS011;11179;52.106;21.024;2023-03-01T02:17:21;70.47;;;34.93;;
22030;SDS011;11179;52.106;21.024;2023-03-01T02:22:37;75.90;;;36.70;;
22030;SDS011;11179;52.106;21.024;2023-03-01T02:30:17;78.18;;;36.67;;
22030;SDS011;11179;52.106;21.024;2023-03-01T02:32:44;80.57;;;37.22;;
22030;SDS011;11179;52.106;21.024;2023-03-01T02:35:10;80.27;;;39.30;;
22030;SDS011;11179;52.106;21.024;2023-03-01T02:37:38;81.28;;;38.72;;
22030;SDS011;11179;52.106;21.024;2023-03-01T02:40:06;74.95;;;36.65;;
22030;SDS011;11179;52.106;21.024;2023-03-01T02:42:41;98.43;;;37.92;;
22030;SDS011;11179;52.106;21.024;2023-03-01T02:45:16;73.47;;;36.90;;
22030;SDS011;11179;52.106;21.024;2023-03-01T02:47:41;74.17;;;37.60;;
22030;SDS011;11179;52.106;21.024;2023-03-01T02:50:34;76.80;;;37.83;;
22030;SDS011;11179;52.106;21.024;2023-03-01T02:55:30;75.88;;;38.22;;
22030;SDS011;11179;52.106;21.024;2023-03-01T02:57:55;74.73;;;37.83;;
22030;SDS011;11179;52.106;21.024;2023-03-01T03:00:26;89.30;;;42.33;;
22030;SDS011;11179;52.106;21.024;2023-03-01T03:02:58;84.22;;;39.67;;
22030;SDS011;11179;52.106;21.024;2023-03-01T03:05:25;80.23;;;38.63;;
22030;SDS011;11179;52.106;21.024;2023-03-01T03:07:52;74.25;;;35.97;;
22030;SDS011;11179;52.106;21.024;2023-03-01T03:10:22;82.50;;;39.40;;
22030;SDS011;11179;52.106;21.024;2023-03-01T03:12:50;78.60;;;37.30;;
22030;SDS011;11179;52.106;21.024;2023-03-01T03:15:17;78.13;;;36.80;;
22030;SDS011;11179;52.106;21.024;2023-03-01T03:17:43;77.47;;;36.72;;
22030;SDS011;11179;52.106;21.024;2023-03-01T03:20:10;82.47;;;38.10;;
22030;SDS011;11179;52.106;21.024;2023-03-01T03:22:40;80.70;;;37.80;;
22030;SDS011;11179;52.106;21.024;2023-03-01T03:25:06;78.63;;;38.67;;
22030;SDS011;11179;52.106;21.024;2023-03-01T03:27:36;83.55;;;40.00;;
22030;SDS011;11179;52.106;21.024;2023-03-01T03:30:03;88.55;;;44.10;;
22030;SDS011;11179;52.106;21.024;2023-03-01T03:32:36;102.00;;;46.15;;
22030;SDS011;11179;52.106;21.024;2023-03-01T03:35:02;93.53;;;43.78;;
22030;SDS011;11179;52.106;21.024;2023-03-01T03:37:34;94.57;;;44.78;;
22030;SDS011;11179;52.106;21.024;2023-03-01T03:40:24;96.82;;;43.35;;
22030;SDS011;11179;52.106;21.024;2023-03-01T03:42:50;92.38;;;44.30;;
22030;SDS011;11179;52.106;21.024;2023-03-01T03:45:16;93.97;;;44.60;;
22030;SDS011;11179;52.106;21.024;2023-03-01T03:47:42;85.07;;;42.10;;
22030;SDS011;11179;52.106;21.024;2023-03-01T03:50:08;86.13;;;42.80;;
22030;SDS011;11179;52.106;21.024;2023-03-01T03:52:35;80.97;;;39.30;;
22030;SDS011;11179;52.106;21.024;2023-03-01T03:55:00;81.93;;;41.73;;
22030;SDS011;11179;52.106;21.024;2023-03-01T03:57:25;91.17;;;44.57;;
22030;SDS011;11179;52.106;21.024;2023-03-01T03:59:50;81.30;;;43.20;;
22030;SDS011;11179;52.106;21.024;2023-03-01T04:02:16;82.63;;;41.70;;
22030;SDS011;11179;52.106;21.024;2023-03-01T04:04:47;73.82;;;39.60;;
22030;SDS011;11179;52.106;21.024;2023-03-01T04:07:14;79.53;;;40.00;;
22030;SDS011;11179;52.106;21.024;2023-03-01T04:09:40;79.22;;;39.50;;
22030;SDS011;11179;52.106;21.024;2023-03-01T04:12:07;72.65;;;36.85;;
22030;SDS011;11179;52.106;21.024;2023-03-01T04:14:33;83.33;;;39.60;;
22030;SDS011;11179;52.106;21.024;2023-03-01T04:16:59;74.60;;;38.93;;
22030;SDS011;11179;52.106;21.024;2023-03-01T04:19:24;82.63;;;39.73;;
22030;SDS011;11179;52.106;21.024;2023-03-01T04:21:49;79.30;;;38.20;;
22030;SDS011;11179;52.106;21.024;2023-03-01T04:24:14;73.90;;;38.70;;
22030;SDS011;11179;52.106;21.024;2023-03-01T04:26:40;79.33;;;39.10;;
22030;SDS011;11179;52.106;21.024;2023-03-01T04:29:05;82.13;;;40.47;;
22030;SDS011;11179;52.106;21.024;2023-03-01T04:31:30;74.20;;;34.23;;
22030;SDS011;11179;52.106;21.024;2023-03-01T04:33:56;74.10;;;37.33;;
22030;SDS011;11179;52.106;21.024;2023-03-01T04:36:25;82.90;;;38.27;;
22030;SDS011;11179;52.106;21.024;2023-03-01T04:38:52;76.53;;;36.95;;
22030;SDS011;11179;52.106;21.024;2023-03-01T04:41:18;75.90;;;38.03;;
22030;SDS011;11179;52.106;21.024;2023-03-01T04:43:44;82.00;;;38.65;;
22030;SDS011;11179;52.106;21.024;2023-03-01T04:46:11;78.80;;;38.00;;
22030;SDS011;11179;52.106;21.024;2023-03-01T04:48:39;85.75;;;38.33;;
22030;SDS011;11179;52.106;21.024;2023-03-01T04:51:05;70.28;;;35.78;;
22030;SDS011;11179;52.106;21.024;2023-03-01T04:53:32;71.82;;;36.03;;
22030;SDS011;11179;52.106;21.024;2023-03-01T04:55:58;82.07;;;35.97;;
22030;SDS011;11179;52.106;21.024;2023-03-01T04:58:24;75.72;;;35.33;;
22030;SDS011;11179;52.106;21.024;2023-03-01T05:00:51;73.80;;;37.35;;
22030;SDS011;11179;52.106;21.024;2023-03-01T05:03:17;65.22;;;35.28;;
22030;SDS011;11179;52.106;21.024;2023-03-01T05:05:44;75.97;;;38.13;;
22030;SDS011;11179;52.106;21.024;2023-03-01T05:08:11;77.22;;;38.58;;
22030;SDS011;11179;52.106;21.024;2023-03-01T05:10:42;74.47;;;37.00;;
22030;SDS011;11179;52.106;21.024;2023-03-01T05:13:13;88.35;;;38.55;;
22030;SDS011;11179;52.106;21.024;2023-03-01T05:15:45;74.82;;;36.65;;
22030;SDS011;11179;52.106;21.024;2023-03-01T05:18:11;72.93;;;35.00;;
22030;SDS011;11179;52.106;21.024;2023-03-01T05:20:37;76.80;;;35.97;;
22030;SDS011;11179;52.106;21.024;2023-03-01T05:23:03;78.88;;;37.22;;
22030;SDS011;11179;52.106;21.024;2023-03-01T05:25:30;71.53;;;34.35;;
22030;SDS011;11179;52.106;21.024;2023-03-01T05:27:58;75.13;;;33.63;;
22030;SDS011;11179;52.106;21.024;2023-03-01T05:30:24;75.72;;;36.28;;
22030;SDS011;11179;52.106;21.024;2023-03-01T05:32:50;66.97;;;34.93;;
22030;SDS011;11179;52.106;21.024;2023-03-01T05:35:20;64.50;;;33.20;;
22030;SDS011;11179;52.106;21.024;2023-03-01T05:37:46;70.70;;;33.10;;
22030;SDS011;11179;52.106;21.024;2023-03-01T05:40:14;72.47;;;34.88;;
22030;SDS011;11179;52.106;21.024;2023-03-01T05:42:43;70.30;;;33.90;;
22030;SDS011;11179;52.106;21.024;2023-03-01T05:45:10;76.22;;;36.53;;
22030;SDS011;11179;52.106;21.024;2023-03-01T05:47:37;72.43;;;35.78;;
22030;SDS011;11179;52.106;21.024;2023-03-01T05:50:03;74.63;;;34.60;;
22030;SDS011;11179;52.106;21.024;2023-03-01T05:52:28;70.90;;;32.67;;
22030;SDS011;11179;52.106;21.024;2023-03-01T05:54:53;73.07;;;33.57;;
22030;SDS011;11179;52.106;21.024;2023-03-01T05:57:19;66.00;;;33.20;;
22030;SDS011;11179;52.106;21.024;2023-03-01T05:59:45;73.93;;;34.00;;
22030;SDS011;11179;52.106;21.024;2023-03-01T06:02:10;65.17;;;32.07;;
22030;SDS011;11179;52.106;21.024;2023-03-01T06:04:35;70.40;;;34.23;;
22030;SDS011;11179;52.106;21.024;2023-03-01T06:07:01;76.13;;;34.87;;
22030;SDS011;11179;52.106;21.024;2023-03-01T06:09:26;64.57;;;32.70;;
22030;SDS011;11179;52.106;21.024;2023-03-01T06:11:51;66.53;;;32.27;;
22030;SDS011;11179;52.106;21.024;2023-03-01T06:14:16;68.70;;;33.70;;
22030;SDS011;11179;52.106;21.024;2023-03-01T06:16:42;65.73;;;32.47;;
22030;SDS011;11179;52.106;21.024;2023-03-01T06:19:07;65.83;;;30.97;;
22030;SDS011;11179;52.106;21.024;2023-03-01T06:21:32;76.30;;;33.97;;
22030;SDS011;11179;52.106;21.024;2023-03-01T06:23:58;68.77;;;35.17;;
22030;SDS011;11179;52.106;21.024;2023-03-01T06:26:23;63.07;;;30.87;;
22030;SDS011;11179;52.106;21.024;2023-03-01T06:28:48;79.93;;;32.63;;
22030;SDS011;11179;52.106;21.024;2023-03-01T06:31:13;69.00;;;32.30;;
22030;SDS011;11179;52.106;21.024;2023-03-01T06:33:39;64.67;;;29.33;;
22030;SDS011;11179;52.106;21.024;2023-03-01T06:36:05;64.97;;;30.10;;
22030;SDS011;11179;52.106;21.024;2023-03-01T06:38:31;63.20;;;29.08;;
22030;SDS011;11179;52.106;21.024;2023-03-01T06:40:56;58.97;;;27.63;;
22030;SDS011;11179;52.106;21.024;2023-03-01T06:43:22;60.13;;;28.07;;
22030;SDS011;11179;52.106;21.024;2023-03-01T06:45:48;60.67;;;27.02;;
22030;SDS011;11179;52.106;21.024;2023-03-01T06:48:13;57.47;;;27.13;;
22030;SDS011;11179;52.106;21.024;2023-03-01T06:50:39;55.60;;;27.03;;
22030;SDS011;11179;52.106;21.024;2023-03-01T06:53:04;68.50;;;27.37;;
22030;SDS011;11179;52.106;21.024;2023-03-01T06:55:30;60.13;;;26.27;;
22030;SDS011;11179;52.106;21.024;2023-03-01T06:57:56;54.03;;;25.90;;
22030;SDS011;11179;52.106;21.024;2023-03-01T07:00:23;54.15;;;26.02;;
22030;SDS011;11179;52.106;21.024;2023-03-01T07:02:49;53.87;;;25.70;;
22030;SDS011;11179;52.106;21.024;2023-03-01T07:05:15;56.00;;;25.70;;
22030;SDS011;11179;52.106;21.024;2023-03-01T07:07:40;55.13;;;25.77;;
22030;SDS011;11179;52.106;21.024;2023-03-01T07:10:05;55.27;;;27.10;;
22030;SDS011;11179;52.106;21.024;2023-03-01T07:12:32;54.97;;;25.80;;
22030;SDS011;11179;52.106;21.024;2023-03-01T07:14:57;53.93;;;25.43;;
22030;SDS011;11179;52.106;21.024;2023-03-01T07:17:22;55.43;;;25.47;;
22030;SDS011;11179;52.106;21.024;2023-03-01T07:19:48;56.20;;;24.37;;
22030;SDS011;11179;52.106;21.024;2023-03-01T07:22:13;57.80;;;25.43;;
22030;SDS011;11179;52.106;21.024;2023-03-01T07:24:39;60.03;;;24.57;;
22030;SDS011;11179;52.106;21.024;2023-03-01T07:27:06;58.97;;;25.27;;
22030;SDS011;11179;52.106;21.024;2023-03-01T07:29:31;54.77;;;24.93;;
22030;SDS011;11179;52.106;21.024;2023-03-01T07:31:56;60.07;;;24.50;;
22030;SDS011;11179;52.106;21.024;2023-03-01T07:34:22;58.53;;;25.27;;
22030;SDS011;11179;52.106;21.024;2023-03-01T07:36:47;61.20;;;26.63;;
22030;SDS011;11179;52.106;21.024;2023-03-01T07:39:12;49.23;;;23.57;;
22030;SDS011;11179;52.106;21.024;2023-03-01T07:41:38;50.40;;;25.40;;
22030;SDS011;11179;52.106;21.024;2023-03-01T07:44:03;49.20;;;22.00;;
22030;SDS011;11179;52.106;21.024;2023-03-01T07:46:29;48.13;;;23.60;;
22030;SDS011;11179;52.106;21.024;2023-03-01T07:48:54;52.77;;;25.03;;
22030;SDS011;11179;52.106;21.024;2023-03-01T07:51:20;48.67;;;24.50;;
22030;SDS011;11179;52.106;21.024;2023-03-01T07:53:46;59.17;;;23.93;;
22030;SDS011;11179;52.106;21.024;2023-03-01T07:56:13;50.37;;;23.57;;
22030;SDS011;11179;52.106;21.024;2023-03-01T07:58:41;53.17;;;22.80;;
22030;SDS011;11179;52.106;21.024;2023-03-01T08:01:08;44.63;;;21.60;;
22030;SDS011;11179;52.106;21.024;2023-03-01T08:03:35;48.83;;;22.20;;
22030;SDS011;11179;52.106;21.024;2023-03-01T08:06:01;49.83;;;22.57;;
22030;SDS011;11179;52.106;21.024;2023-03-01T08:08:28;53.00;;;24.00;;
22030;SDS011;11179;52.106;21.024;2023-03-01T08:10:56;50.70;;;22.30;;
22030;SDS011;11179;52.106;21.024;2023-03-01T08:13:22;48.93;;;20.70;;
22030;SDS011;11179;52.106;21.024;2023-03-01T08:15:50;41.90;;;20.87;;
22030;SDS011;11179;52.106;21.024;2023-03-01T08:18:16;45.07;;;21.60;;
22030;SDS011;11179;52.106;21.024;2023-03-01T08:20:42;47.63;;;21.37;;
22030;SDS011;11179;52.106;21.024;2023-03-01T08:23:08;42.83;;;22.53;;
22030;SDS011;11179;52.106;21.024;2023-03-01T08:25:33;40.30;;;19.03;;
22030;SDS011;11179;52.106;21.024;2023-03-01T08:27:58;50.40;;;22.57;;
22030;SDS011;11179;52.106;21.024;2023-03-01T08:30:24;41.50;;;20.33;;
22030;SDS011;11179;52.106;21.024;2023-03-01T08:32:49;45.03;;;20.67;;
22030;SDS011;11179;52.106;21.024;2023-03-01T08:35:16;43.07;;;18.70;;
22030;SDS011;11179;52.106;21.024;2023-03-01T08:37:43;39.23;;;19.57;;
22030;SDS011;11179;52.106;21.024;2023-03-01T08:40:09;38.43;;;18.87;;
22030;SDS011;11179;52.106;21.024;2023-03-01T08:42:35;38.53;;;18.97;;
22030;SDS011;11179;52.106;21.024;2023-03-01T08:45:02;37.57;;;18.60;;
22030;SDS011;11179;52.106;21.024;2023-03-01T08:47:28;40.60;;;19.00;;
22030;SDS011;11179;52.106;21.024;2023-03-01T08:49:53;39.80;;;19.40;;
22030;SDS011;11179;52.106;21.024;2023-03-01T08:52:19;37.47;;;18.50;;
22030;SDS011;11179;52.106;21.024;2023-03-01T08:54:47;41.00;;;18.70;;
22030;SDS011;11179;52.106;21.024;2023-03-01T08:57:13;41.23;;;16.90;;
22030;SDS011;11179;52.106;21.024;2023-03-01T08:59:38;37.10;;;16.93;;
22030;SDS011;11179;52.106;21.024;2023-03-01T09:02:04;37.23;;;17.87;;
22030;SDS011;11179;52.106;21.024;2023-03-01T09:04:30;39.70;;;18.60;;
22030;SDS011;11179;52.106;21.024;2023-03-01T09:06:56;40.40;;;18.00;;
22030;SDS011;11179;52.106;21.024;2023-03-01T09:09:21;42.77;;;17.70;;
22030;SDS011;11179;52.106;21.024;2023-03-01T09:11:46;38.63;;;18.03;;
22030;SDS011;11179;52.106;21.024;2023-03-01T09:14:12;38.27;;;17.70;;
22030;SDS011;11179;52.106;21.024;2023-03-01T09:19:14;35.40;;;17.20;;
22030;SDS011;11179;52.106;21.024;2023-03-01T09:21:39;34.33;;;17.83;;
22030;SDS011;11179;52.106;21.024;2023-03-01T09:24:05;40.33;;;18.27;;
22030;SDS011;11179;52.106;21.024;2023-03-01T09:26:37;36.17;;;18.40;;
22030;SDS011;11179;52.106;21.024;2023-03-01T09:29:02;40.27;;;17.30;;
22030;SDS011;11179;52.106;21.024;2023-03-01T09:31:28;35.40;;;19.30;;
22030;SDS011;11179;52.106;21.024;2023-03-01T09:33:53;35.30;;;17.27;;
22030;SDS011;11179;52.106;21.024;2023-03-01T09:36:20;44.50;;;20.30;;
22030;SDS011;11179;52.106;21.024;2023-03-01T09:38:47;31.50;;;17.07;;
22030;SDS011;11179;52.106;21.024;2023-03-01T09:47:02;39.53;;;19.80;;
22030;SDS011;11179;52.106;21.024;2023-03-01T09:49:29;41.50;;;17.67;;
22030;SDS011;11179;52.106;21.024;2023-03-01T09:52:05;38.57;;;18.50;;
22030;SDS011;11179;52.106;21.024;2023-03-01T09:54:44;38.67;;;18.67;;
22030;SDS011;11179;52.106;21.024;2023-03-01T10:08:37;39.33;;;18.87;;
22030;SDS011;11179;52.106;21.024;2023-03-01T10:11:15;39.20;;;19.97;;
22030;SDS011;11179;52.106;21.024;2023-03-01T10:14:07;39.60;;;18.33;;
22030;SDS011;11179;52.106;21.024;2023-03-01T10:16:57;41.70;;;17.80;;
22030;SDS011;11179;52.106;21.024;2023-03-01T10:24:53;38.67;;;18.63;;
22030;SDS011;11179;52.106;21.024;2023-03-01T10:27:24;42.20;;;18.13;;
22030;SDS011;11179;52.106;21.024;2023-03-01T10:30:05;37.00;;;16.77;;
22030;SDS011;11179;52.106;21.024;2023-03-01T10:32:41;33.37;;;16.40;;
22030;SDS011;11179;52.106;21.024;2023-03-01T10:37:56;41.87;;;16.60;;
22030;SDS011;11179;52.106;21.024;2023-03-01T10:40:22;35.33;;;16.30;;
22030;SDS011;11179;52.106;21.024;2023-03-01T10:42:48;30.47;;;15.43;;
22030;SDS011;11179;52.106;21.024;2023-03-01T10:45:16;38.80;;;19.37;;
22030;SDS011;11179;52.106;21.024;2023-03-01T10:48:05;40.30;;;17.50;;
22030;SDS011;11179;52.106;21.024;2023-03-01T10:50:33;35.43;;;17.30;;
22030;SDS011;11179;52.106;21.024;2023-03-01T10:53:03;35.57;;;16.17;;
22030;SDS011;11179;52.106;21.024;2023-03-01T10:55:36;46.13;;;16.47;;
22030;SDS011;11179;52.106;21.024;2023-03-01T10:58:20;33.57;;;14.97;;
22030;SDS011;11179;52.106;21.024;2023-03-01T11:03:22;33.07;;;15.80;;
22030;SDS011;11179;52.106;21.024;2023-03-01T11:08:37;28.83;;;14.70;;
22030;SDS011;11179;52.106;21.024;2023-03-01T11:11:04;28.73;;;14.83;;
22030;SDS011;11179;52.106;21.024;2023-03-01T11:16:28;30.23;;;14.50;;
22030;SDS011;11179;52.106;21.024;2023-03-01T11:21:36;30.77;;;14.70;;
22030;SDS011;11179;52.106;21.024;2023-03-01T11:24:05;34.40;;;15.93;;
22030;SDS011;11179;52.106;21.024;2023-03-01T11:26:38;34.87;;;15.00;;
22030;SDS011;11179;52.106;21.024;2023-03-01T11:29:13;33.70;;;15.63;;
22030;SDS011;11179;52.106;21.024;2023-03-01T11:31:46;35.33;;;15.60;;
22030;SDS011;11179;52.106;21.024;2023-03-01T11:34:20;36.57;;;15.00;;
22030;SDS011;11179;52.106;21.024;2023-03-01T11:36:58;28.60;;;13.80;;
22030;SDS011;11179;52.106;21.024;2023-03-01T11:39:28;30.87;;;14.10;;
22030;SDS011;11179;52.106;21.024;2023-03-01T11:42:06;34.63;;;14.13;;
22030;SDS011;11179;52.106;21.024;2023-03-01T11:44:36;36.97;;;13.87;;
22030;SDS011;11179;52.106;21.024;2023-03-01T11:50:08;31.37;;;13.37;;
22030;SDS011;11179;52.106;21.024;2023-03-01T11:52:47;27.93;;;12.53;;
22030;SDS011;11179;52.106;21.024;2023-03-01T11:55:36;27.60;;;13.37;;
22030;SDS011;11179;52.106;21.024;2023-03-01T12:01:19;25.90;;;12.37;;
22030;SDS011;11179;52.106;21.024;2023-03-01T12:22:56;27.23;;;12.80;;
22030;SDS011;11179;52.106;21.024;2023-03-01T12:25:30;33.37;;;13.57;;
22030;SDS011;11179;52.106;21.024;2023-03-01T12:30:53;33.17;;;13.07;;
22030;SDS011;11179;52.106;21.024;2023-03-01T12:36:11;24.30;;;12.20;;
22030;SDS011;11179;52.106;21.024;2023-03-01T12:38:50;29.00;;;13.83;;
22030;SDS011;11179;52.106;21.024;2023-03-01T12:41:40;25.50;;;13.23;;
22030;SDS011;11179;52.106;21.024;2023-03-01T12:44:14;27.67;;;12.70;;
22030;SDS011;11179;52.106;21.024;2023-03-01T12:46:51;31.80;;;13.80;;
22030;SDS011;11179;52.106;21.024;2023-03-01T12:49:31;31.60;;;13.07;;
22030;SDS011;11179;52.106;21.024;2023-03-01T12:52:04;27.00;;;12.90;;
22030;SDS011;11179;52.106;21.024;2023-03-01T12:54:39;28.27;;;13.20;;
22030;SDS011;11179;52.106;21.024;2023-03-01T13:11:28;32.63;;;13.90;;
22030;SDS011;11179;52.106;21.024;2023-03-01T13:14:33;27.20;;;12.97;;
22030;SDS011;11179;52.106;21.024;2023-03-01T13:16:48;29.40;;;13.90;;
22030;SDS011;11179;52.106;21.024;2023-03-01T13:19:15;32.07;;;12.63;;
22030;SDS011;11179;52.106;21.024;2023-03-01T13:21:43;28.07;;;13.50;;
22030;SDS011;11179;52.106;21.024;2023-03-01T13:27:25;32.53;;;12.87;;
22030;SDS011;11179;52.106;21.024;2023-03-01T13:29:57;28.43;;;14.00;;
22030;SDS011;11179;52.106;21.024;2023-03-01T13:32:35;29.00;;;14.03;;
22030;SDS011;11179;52.106;21.024;2023-03-01T13:37:40;30.00;;;12.70;;
22030;SDS011;11179;52.106;21.024;2023-03-01T13:42:42;30.20;;;13.80;;
22030;SDS011;11179;52.106;21.024;2023-03-01T13:47:49;30.47;;;13.60;;
22030;SDS011;11179;52.106;21.024;2023-03-01T13:50:23;28.67;;;14.20;;
22030;SDS011;11179;52.106;21.024;2023-03-01T13:55:19;40.57;;;15.40;;
22030;SDS011;11179;52.106;21.024;2023-03-01T13:57:59;33.27;;;14.23;;
22030;SDS011;11179;52.106;21.024;2023-03-01T14:00:36;38.40;;;14.23;;
22030;SDS011;11179;52.106;21.024;2023-03-01T14:05:30;28.53;;;13.13;;
22030;SDS011;11179;52.106;21.024;2023-03-01T14:07:56;32.57;;;13.80;;
22030;SDS011;11179;52.106;21.024;2023-03-01T14:10:21;31.17;;;15.73;;
22030;SDS011;11179;52.106;21.024;2023-03-01T14:15:42;28.70;;;13.80;;
22030;SDS011;11179;52.106;21.024;2023-03-01T14:18:15;28.00;;;13.30;;
22030;SDS011;11179;52.106;21.024;2023-03-01T14:20:49;30.87;;;14.40;;
22030;SDS011;11179;52.106;21.024;2023-03-01T14:23:18;26.37;;;12.70;;
22030;SDS011;11179;52.106;21.024;2023-03-01T14:25:47;27.37;;;12.90;;
22030;SDS011;11179;52.106;21.024;2023-03-01T14:28:19;27.00;;;13.20;;
22030;SDS011;11179;52.106;21.024;2023-03-01T14:30:49;28.70;;;14.27;;
22030;SDS011;11179;52.106;21.024;2023-03-01T14:38:50;33.53;;;14.90;;
22030;SDS011;11179;52.106;21.024;2023-03-01T14:41:20;31.60;;;14.90;;
22030;SDS011;11179;52.106;21.024;2023-03-01T14:43:49;36.77;;;16.07;;
22030;SDS011;11179;52.106;21.024;2023-03-01T14:46:21;36.07;;;16.20;;
22030;SDS011;11179;52.106;21.024;2023-03-01T14:48:54;40.20;;;16.10;;
22030;SDS011;11179;52.106;21.024;2023-03-01T14:51:23;36.37;;;16.03;;
22030;SDS011;11179;52.106;21.024;2023-03-01T14:53:49;35.97;;;15.70;;
22030;SDS011;11179;52.106;21.024;2023-03-01T14:56:16;35.43;;;14.70;;
22030;SDS011;11179;52.106;21.024;2023-03-01T14:58:45;31.60;;;14.17;;
22030;SDS011;11179;52.106;21.024;2023-03-01T15:01:13;35.20;;;14.83;;
22030;SDS011;11179;52.106;21.024;2023-03-01T15:03:42;30.73;;;15.67;;
22030;SDS011;11179;52.106;21.024;2023-03-01T15:06:10;32.30;;;15.03;;
22030;SDS011;11179;52.106;21.024;2023-03-01T15:08:41;32.20;;;15.23;;
22030;SDS011;11179;52.106;21.024;2023-03-01T15:11:29;31.67;;;14.87;;
22030;SDS011;11179;52.106;21.024;2023-03-01T15:13:58;39.50;;;15.37;;
22030;SDS011;11179;52.106;21.024;2023-03-01T15:16:24;30.40;;;14.50;;
22030;SDS011;11179;52.106;21.024;2023-03-01T15:18:56;38.03;;;17.00;;
22030;SDS011;11179;52.106;21.024;2023-03-01T15:21:25;29.60;;;15.47;;
22030;SDS011;11179;52.106;21.024;2023-03-01T15:23:54;36.63;;;14.63;;
22030;SDS011;11179;52.106;21.024;2023-03-01T15:26:22;32.20;;;15.00;;
22030;SDS011;11179;52.106;21.024;2023-03-01T15:28:51;31.13;;;14.67;;
22030;SDS011;11179;52.106;21.024;2023-03-01T15:31:24;33.97;;;15.60;;
22030;SDS011;11179;52.106;21.024;2023-03-01T15:34:11;31.47;;;16.00;;
22030;SDS011;11179;52.106;21.024;2023-03-01T15:36:48;36.77;;;14.73;;
22030;SDS011;11179;52.106;21.024;2023-03-01T15:39:34;36.60;;;14.67;;
22030;SDS011;11179;52.106;21.024;2023-03-01T15:42:05;32.63;;;15.00;;
22030;SDS011;11179;52.106;21.024;2023-03-01T15:44:34;42.30;;;16.70;;
22030;SDS011;11179;52.106;21.024;2023-03-01T15:47:00;32.63;;;14.47;;
22030;SDS011;11179;52.106;21.024;2023-03-01T15:52:01;32.00;;;15.23;;
22030;SDS011;11179;52.106;21.024;2023-03-01T15:54:27;30.90;;;14.13;;
22030;SDS011;11179;52.106;21.024;2023-03-01T15:56:54;37.17;;;15.30;;
22030;SDS011;11179;52.106;21.024;2023-03-01T15:59:19;34.17;;;15.40;;
22030;SDS011;11179;52.106;21.024;2023-03-01T16:01:44;31.93;;;13.43;;
22030;SDS011;11179;52.106;21.024;2023-03-01T16:04:13;32.20;;;14.40;;
22030;SDS011;11179;52.106;21.024;2023-03-01T16:06:48;31.50;;;14.37;;
22030;SDS011;11179;52.106;21.024;2023-03-01T16:09:18;36.20;;;15.00;;
22030;SDS011;11179;52.106;21.024;2023-03-01T16:11:53;37.77;;;16.10;;
22030;SDS011;11179;52.106;21.024;2023-03-01T16:14:18;30.50;;;14.60;;
22030;SDS011;11179;52.106;21.024;2023-03-01T16:16:44;38.40;;;14.70;;
22030;SDS011;11179;52.106;21.024;2023-03-01T16:19:10;38.13;;;15.53;;